createdAt,value
2018-07-03T00:00:26.546Z,1011.98
2018-07-03T00:03:27.842Z,1011.98
2018-07-03T00:04:24.684Z,1011.95
2018-07-03T00:06:20.667Z,1011.97
2018-07-03T00:07:21.228Z,1011.99
2018-07-03T00:09:16.620Z,1011.97
2018-07-03T00:10:16.633Z,1011.90
2018-07-03T00:12:16.065Z,1011.93
2018-07-03T00:13:15.567Z,1011.92
2018-07-03T00:15:13.657Z,1011.93
2018-07-03T00:16:12.639Z,1011.90
2018-07-03T00:18:09.619Z,1011.94
2018-07-03T00:19:08.615Z,1011.94
2018-07-03T00:21:07.098Z,1011.91
2018-07-03T00:22:07.055Z,1011.94
2018-07-03T00:24:05.518Z,1011.89
2018-07-03T00:25:04.684Z,1011.89
2018-07-03T00:27:02.692Z,1011.84
2018-07-03T00:28:02.640Z,1011.82
2018-07-03T00:30:01.600Z,1011.78
2018-07-03T00:31:00.609Z,1011.84
2018-07-03T00:32:59.057Z,1011.79
2018-07-03T00:34:00.094Z,1011.83
2018-07-03T00:35:56.516Z,1011.79
2018-07-03T00:36:56.526Z,1011.83
2018-07-03T00:38:54.490Z,1011.78
2018-07-03T00:39:54.477Z,1011.81
2018-07-03T00:41:52.445Z,1011.81
2018-07-03T00:42:52.451Z,1011.81
2018-07-03T00:44:48.362Z,1011.85
2018-07-03T00:45:48.361Z,1011.83
2018-07-03T00:47:46.306Z,1011.86
2018-07-03T00:48:46.334Z,1011.83
2018-07-03T00:50:45.313Z,1011.82
2018-07-03T00:51:44.459Z,1011.78
2018-07-03T00:53:42.419Z,1011.74
2018-07-03T00:54:42.425Z,1011.74
2018-07-03T00:56:38.391Z,1011.72
2018-07-03T00:57:38.382Z,1011.73
2018-07-03T00:59:36.357Z,1011.75
2018-07-03T01:00:36.339Z,1011.72
2018-07-03T01:02:34.791Z,1011.72
2018-07-03T01:03:34.255Z,1011.70
2018-07-03T01:05:32.258Z,1011.69
2018-07-03T01:06:32.717Z,1011.68
2018-07-03T01:08:31.172Z,1011.69
2018-07-03T01:09:30.370Z,1011.67
2018-07-03T01:11:29.317Z,1011.72
2018-07-03T01:12:29.315Z,1011.68
2018-07-03T01:14:26.290Z,1011.62
2018-07-03T01:15:26.306Z,1011.59
2018-07-03T01:17:25.756Z,1011.57
2018-07-03T01:18:25.311Z,1011.60
2018-07-03T01:20:20.353Z,1011.57
2018-07-03T01:21:20.353Z,1011.57
2018-07-03T01:23:19.306Z,1011.59
2018-07-03T01:24:18.478Z,1011.57
2018-07-03T01:26:16.601Z,1011.58
2018-07-03T01:27:16.627Z,1011.60
2018-07-03T01:29:15.087Z,1011.62
2018-07-03T01:30:14.573Z,1011.57
2018-07-03T01:32:12.642Z,1011.59
2018-07-03T01:33:12.638Z,1011.58
2018-07-03T01:35:10.791Z,1011.59
2018-07-03T01:36:10.798Z,1011.57
2018-07-03T01:38:11.207Z,1011.61
2018-07-03T01:39:11.206Z,1011.62
2018-07-03T01:41:09.691Z,1011.59
2018-07-03T01:42:09.188Z,1011.58
2018-07-03T01:44:07.665Z,1011.60
2018-07-03T01:45:07.336Z,1011.61
2018-07-03T01:47:05.830Z,1011.60
2018-07-03T01:48:05.776Z,1011.60
2018-07-03T01:50:01.242Z,1011.65
2018-07-03T01:51:01.248Z,1011.59
2018-07-03T01:52:57.228Z,1011.59
2018-07-03T01:53:57.226Z,1011.56
2018-07-03T01:55:56.169Z,1011.60
2018-07-03T01:56:55.195Z,1011.62
2018-07-03T01:58:52.610Z,1011.63
2018-07-03T01:59:52.106Z,1011.60
2018-07-03T02:01:50.007Z,1011.64
2018-07-03T02:02:50.025Z,1011.62
2018-07-03T02:04:48.031Z,1011.56
2018-07-03T02:05:47.963Z,1011.58
2018-07-03T02:07:47.427Z,1011.60
2018-07-03T02:08:45.919Z,1011.58
2018-07-03T02:10:43.862Z,1011.57
2018-07-03T02:11:43.854Z,1011.53
2018-07-03T02:13:41.910Z,1011.53
2018-07-03T02:14:42.331Z,1011.53
2018-07-03T02:16:40.276Z,1011.57
2018-07-03T02:17:39.764Z,1011.55
2018-07-03T02:19:36.225Z,1011.55
2018-07-03T02:20:36.218Z,1011.48
2018-07-03T02:22:34.156Z,1011.51
2018-07-03T02:23:33.670Z,1011.56
2018-07-03T02:25:31.735Z,1011.55
2018-07-03T02:26:31.732Z,1011.50
2018-07-03T02:28:30.684Z,1011.54
2018-07-03T02:29:31.222Z,1011.54
2018-07-03T02:31:27.621Z,1011.55
2018-07-03T02:32:27.639Z,1011.53
2018-07-03T02:34:25.811Z,1011.53
2018-07-03T02:35:25.786Z,1011.53
2018-07-03T02:37:24.756Z,1011.53
2018-07-03T02:38:24.728Z,1011.52
2018-07-03T02:40:24.900Z,1011.54
2018-07-03T02:41:24.372Z,1011.53
2018-07-03T02:43:20.426Z,1011.53
2018-07-03T02:44:20.355Z,1011.50
2018-07-03T02:46:20.305Z,1011.55
2018-07-03T02:47:18.287Z,1011.57
2018-07-03T02:49:17.729Z,1011.54
2018-07-03T02:50:16.380Z,1011.54
2018-07-03T02:52:14.867Z,1011.49
2018-07-03T02:53:14.313Z,1011.48
2018-07-03T02:55:11.764Z,1011.52
2018-07-03T02:56:11.270Z,1011.49
2018-07-03T02:58:09.182Z,1011.50
2018-07-03T02:59:09.209Z,1011.52
2018-07-03T03:01:07.176Z,1011.55
2018-07-03T03:02:07.180Z,1011.53
2018-07-03T03:04:05.110Z,1011.55
2018-07-03T03:05:05.160Z,1011.60
2018-07-03T03:07:03.291Z,1011.61
2018-07-03T03:08:03.262Z,1011.61
2018-07-03T03:10:01.243Z,1011.60
2018-07-03T03:11:01.225Z,1011.62
2018-07-03T03:12:59.193Z,1011.58
2018-07-03T03:13:59.688Z,1011.56
2018-07-03T03:15:56.129Z,1011.55
2018-07-03T03:16:56.147Z,1011.57
2018-07-03T03:18:54.608Z,1011.54
2018-07-03T03:19:53.125Z,1011.58
2018-07-03T03:21:51.579Z,1011.53
2018-07-03T03:22:51.075Z,1011.51
2018-07-03T03:24:50.020Z,1011.53
2018-07-03T03:25:49.196Z,1011.51
2018-07-03T03:27:49.179Z,1011.49
2018-07-03T03:28:47.151Z,1011.48
2018-07-03T03:30:45.198Z,1011.49
2018-07-03T03:31:45.610Z,1011.52
2018-07-03T03:33:44.084Z,1011.55
2018-07-03T03:34:43.244Z,1011.56
2018-07-03T03:36:41.716Z,1011.54
2018-07-03T03:37:41.702Z,1011.53
2018-07-03T03:39:39.676Z,1011.50
2018-07-03T03:40:39.328Z,1011.52
2018-07-03T03:42:37.786Z,1011.52
2018-07-03T03:43:37.265Z,1011.58
2018-07-03T03:45:35.215Z,1011.56
2018-07-03T03:46:35.758Z,1011.57
2018-07-03T03:48:34.691Z,1011.56
2018-07-03T03:49:33.191Z,1011.54
2018-07-03T03:51:31.669Z,1011.64
2018-07-03T03:52:31.352Z,1011.64
2018-07-03T03:54:29.431Z,1011.68
2018-07-03T03:55:29.445Z,1011.68
2018-07-03T03:57:25.429Z,1011.69
2018-07-03T03:58:25.891Z,1011.65
2018-07-03T04:00:21.369Z,1011.66
2018-07-03T04:01:21.339Z,1011.70
2018-07-03T04:03:20.329Z,1011.70
2018-07-03T04:04:20.296Z,1011.72
2018-07-03T04:06:17.794Z,1011.78
2018-07-03T04:07:17.769Z,1011.81
2018-07-03T04:09:16.253Z,1011.79
2018-07-03T04:10:17.079Z,1011.82
2018-07-03T04:12:13.029Z,1011.82
2018-07-03T04:13:13.558Z,1011.83
2018-07-03T04:15:10.969Z,1011.87
2018-07-03T04:16:11.478Z,1011.92
2018-07-03T04:18:12.455Z,1011.91
2018-07-03T04:19:12.689Z,1011.95
2018-07-03T04:21:12.040Z,1011.90
2018-07-03T04:22:12.034Z,1011.89
2018-07-03T04:24:12.559Z,1011.89
2018-07-03T04:25:12.527Z,1011.90
2018-07-03T04:27:10.687Z,1011.89
2018-07-03T04:28:10.648Z,1011.93
2018-07-03T04:30:08.574Z,1011.94
2018-07-03T04:31:09.075Z,1011.97
2018-07-03T04:33:06.510Z,1011.95
2018-07-03T04:34:06.561Z,1011.94
2018-07-03T04:36:05.515Z,1011.95
2018-07-03T04:37:05.517Z,1011.98
2018-07-03T04:39:00.602Z,1011.98
2018-07-03T04:40:00.617Z,1012.02
2018-07-03T04:41:59.551Z,1012.03
2018-07-03T04:42:59.043Z,1012.03
2018-07-03T04:44:55.460Z,1012.08
2018-07-03T04:45:54.462Z,1012.03
2018-07-03T04:47:54.919Z,1012.12
2018-07-03T04:48:56.427Z,1012.17
2018-07-03T04:50:52.891Z,1012.25
2018-07-03T04:51:52.844Z,1012.24
2018-07-03T04:53:50.797Z,1012.29
2018-07-03T04:54:50.802Z,1012.30
2018-07-03T04:56:49.266Z,1012.24
2018-07-03T04:57:48.910Z,1012.32
2018-07-03T04:59:51.370Z,1012.27
2018-07-03T05:00:49.872Z,1012.29
2018-07-03T05:02:46.341Z,1012.28
2018-07-03T05:03:46.308Z,1012.34
2018-07-03T05:05:44.806Z,1012.32
2018-07-03T05:06:44.457Z,1012.30
2018-07-03T05:08:42.915Z,1012.34
2018-07-03T05:09:42.374Z,1012.39
2018-07-03T05:11:40.487Z,1012.33
2018-07-03T05:12:41.342Z,1012.34
2018-07-03T05:14:39.347Z,1012.32
2018-07-03T05:15:39.360Z,1012.33
2018-07-03T05:17:35.431Z,1012.33
2018-07-03T05:18:35.346Z,1012.27
2018-07-03T05:20:34.373Z,1012.27
2018-07-03T05:21:33.453Z,1012.25
2018-07-03T05:23:31.446Z,1012.25
2018-07-03T05:24:31.969Z,1012.28
2018-07-03T05:26:29.862Z,1012.27
2018-07-03T05:27:29.379Z,1012.34
2018-07-03T05:29:27.361Z,1012.38
2018-07-03T05:30:27.360Z,1012.39
2018-07-03T05:32:25.234Z,1012.44
2018-07-03T05:33:25.239Z,1012.45
2018-07-03T05:35:23.731Z,1012.50
2018-07-03T05:36:24.218Z,1012.52
2018-07-03T05:38:19.203Z,1012.57
2018-07-03T05:39:20.674Z,1012.57
2018-07-03T05:41:16.625Z,1012.58
2018-07-03T05:42:17.673Z,1012.60
2018-07-03T05:44:13.575Z,1012.60
2018-07-03T05:45:13.079Z,1012.59
2018-07-03T05:47:11.048Z,1012.58
2018-07-03T05:48:11.963Z,1012.58
2018-07-03T05:50:09.167Z,1012.65
2018-07-03T05:51:09.175Z,1012.64
